Rescue Run 5K                                 
                                     Overall                                    
                                 January 1, 2017                                

This race is chip timed. Scoring is by chip time.

Course: Hilly and challenging. The 5K course is entirely on paved roads. It's mostly uphill on the way out,
and mostly downhill on the way back.

The 10K course is about 4+ miles on paved roads and about 2 miles on dirt trails. The first mile is
mostly uphill. Then it is rolling/level for a few miles. The last 1 1/2 miles are mostly downhill.
The 10K course offers some panoramic vistas of the Colorado Springs area and the Front Range mountains.

Weather: Sunny, starting temps in the mid 30s, warming to the mid 40s.  Strong winds from the west.

OPlc GPlc AGPlc AGrp   Bib  Name                    Age Sex City             St Gun     Chip    Pace    
   1    1     1 M25-29  339 Stephen VanGampleare     26  M  Colorado Springs CO 0:17:03 0:17:03 0:05:30 
   2    2     1 M20-24   42 Joshua Simkins           24  M  Colorado Springs CO 0:17:19 0:17:19 0:05:35 
   3    3     1 M30-34  352 Brent Bailey             30  M  Colorado Springs CO 0:17:32 0:17:30 0:05:39 
   4    4     1 M40-44 3986 Marcus Corbett           41  M  Colorado Springs CO 0:18:26 0:18:25 0:05:56 
   5    5     2 M20-24  737 Daniel Wells             24  M  Colorado Springs CO 0:18:29 0:18:29 0:05:58 
   6    6     2 M25-29  368 Conner Drendel           27  M  Colorado Springs CO 0:19:11 0:19:10 0:06:11 
   7    7     1 M35-39  850 Branden Rakita           35  M  Colorado Springs CO 0:19:12 0:19:11 0:06:11 
   8    8     2 M40-44 3448 Cj Hitz                  43  M  Co               CO 0:19:46 0:19:44 0:06:22 
   9    9     3 M20-24  153 David Powers             24  M  Detroit          MI 0:20:31 0:20:30 0:06:37 
  10    1     1 F25-29  887 Kaylen Adragna           26  F  Colorado Springs CO 0:21:23 0:21:21 0:06:53 
                            New Age-Group Course Record!!! Age-Group: F25-29
                            Previous Record:  0:21:58, set in 2005 by Mickey Kelly
                                              age 27, from Colorado Springs CO

  11   10     1 M45-49  168 Neal Oseland             47  M  Colorado Springs CO 0:21:34 0:21:28 0:06:55 
  12   11     2 M30-34  492 David Groves             34  M  Colorado Springs CO 0:21:35 0:21:34 0:06:57 
  13   12     1 M55-59  879 Danny Nelson             57  M  Pueblo           CO 0:21:42 0:21:39 0:06:59 
  14   13     3 M25-29  736 Thomas Powers            28  M  Raleigh          NC 0:21:42 0:21:40 0:06:59 
  15    2     1 F45-49  239 Rochelle Persson         49  F  Colorado Springs CO 0:21:46 0:21:44 0:07:01 
  16    3     1 F20-24   39 Elaina Turley            24  F  Colorado Springs CO 0:21:54 0:21:51 0:07:03 
  17   14     3 M30-34 3447 Leif Sandager            34  M                      0:22:26 0:22:26 0:07:14 
  18   15     2 M55-59    3 Timothy Barry            56  M  Colorado Springs CO 0:22:55 0:22:52 0:07:23 
  19   16     1 M50-54  836 Steven Griego            50  M  Colorado Springs CO 0:23:13 0:23:10 0:07:28 
  20    4     1 F40-44  882 Donna Garcia             43  F  Colorado Springs CO 0:23:16 0:23:13 0:07:29 

OPlc GPlc AGPlc AGrp   Bib  Name                    Age Sex City             St Gun     Chip    Pace    
  21   17     4 M25-29  146 Roland Brodeur           29  M  Colorado Springs CO 0:23:21 0:23:17 0:07:31 
  22    5     2 F20-24  590 Cassandra Drendel        22  F  Colorado Springs CO 0:23:23 0:23:19 0:07:31 
  23    6     2 F40-44  698 Connilee Walter          43  F  Colorado Springs CO 0:23:23 0:23:21 0:07:32 
  24   18     2 M45-49  849 Todd Weaver              47  M  Colorado Springs CO 0:23:27 0:23:23 0:07:33 
  25   19     4 M30-34  843 Sean Donovan             30  M  Colorado Springs CO 0:23:38 0:23:36 0:07:37 
  26   20     1 M01-14  299 Francisco Alvarez        13  M  Colorado Springs CO 0:24:21 0:23:39 0:07:38 
  27   21     3 M55-59  618 Tim Allison              55  M  Colorado Springs CO 0:23:55 0:23:53 0:07:42 
  28   22     3 M40-44   31 Jon Cancellier           40  M  Colorado Springs CO 0:24:07 0:23:53 0:07:42 
  29   23     2 M50-54  596 John Barrett             50  M  Colorado Springs CO 0:24:02 0:23:57 0:07:44 
  30    7     1 F55-59  289 Nancy Hobbs              56  F  Colorado Springs CO 0:24:00 0:23:58 0:07:44 
  31   24     4 M55-59  738 Daniel Powers            57  M  Security         CO 0:24:10 0:24:08 0:07:47 
  32    8     1 F01-14 3955 Emma Baron               14  F  Colorado Springs CO 0:24:14 0:24:10 0:07:48 
  33    9     3 F20-24  693 Taylor Duggins           24  F  Pfafftown        NC 0:24:19 0:24:14 0:07:49 
  34   25     3 M50-54  380 Jeff Barrett             50  M  Colorado Springs CO 0:24:21 0:24:17 0:07:50 
  35   26     5 M30-34  918 Daniel Klausmeier        32  M  Colorado Springs CO 0:24:29 0:24:20 0:07:51 
  36   27     3 M45-49  188 Robert Little            48  M  Peyton           CO 0:24:40 0:24:32 0:07:55 
  37   28     5 M25-29 3985 Allen Browne             29  M  Colorado Springs CO 0:24:43 0:24:35 0:07:56 
  38   29     1 M60-64  350 Eric Thomas              62  M  Colorado Springs CO 0:24:52 0:24:48 0:08:00 
  39   30     4 M40-44  883 David Marques            41  M  Colorado Springs CO 0:24:53 0:24:52 0:08:01 
  40   31     2 M60-64 3971 William Tongue           60  M  Colorado Springs CO 0:24:59 0:24:54 0:08:02 

OPlc GPlc AGPlc AGrp   Bib  Name                    Age Sex City             St Gun     Chip    Pace    
  41   10     4 F20-24  158 Angelina Miley           24  F  Denver           CO 0:25:03 0:25:02 0:08:05 
  42   32     4 M50-54  240 Bren Triplett            52  M  Colorado Springs CO 0:25:10 0:25:04 0:08:05 
  43   33     5 M55-59  196 David Mulligan           55  M  Colorado Springs CO 0:25:15 0:25:11 0:08:07 
  44   34     6 M30-34  264 Sean Rivera              31  M  Colorado Springs CO 0:25:50 0:25:18 0:08:10 
  45   35     5 M50-54  923 David Abby               52  M  Litchfield Park  AZ 0:25:24 0:25:21 0:08:11 
  46   11     1 F30-34  410 Gina Puzo                33  F  Colorado Springs CO 0:25:36 0:25:26 0:08:12 
  47   12     2 F01-14  989 Rylie McMullen           12  F                      0:25:39 0:25:36 0:08:15 
  48   36     2 M01-14  740 Andrew Ballenger         10  M  Colorado Springs CO 0:25:46 0:25:45 0:08:18 
  49   13     2 F30-34  841 Jessica Parton           30  F  Colorado Springs CO 0:26:15 0:25:46 0:08:19 
  50   14     2 F45-49  197 Danielle Spivey          47  F  Colorado Springs CO 0:25:52 0:25:46 0:08:19 
  51   37     6 M50-54  969 Troy Rogula              52  M  Pueblo West      CO 0:26:12 0:25:55 0:08:22 
  52   38     4 M20-24  381 Noah Barrett             20  M  Colorado Springs CO 0:26:01 0:25:57 0:08:22 
  53   39     1 M65-69   71 John Sudduth             66  M  Colorado Springs CO 0:26:04 0:26:00 0:08:23 
  54   15     1 F50-54 3462 Penny Vetter             53  F  Woodland Park    CO 0:26:08 0:26:02 0:08:24 
  55   40     4 M45-49  475 Chuck Herbst             48  M  Colorado Springs CO 0:26:16 0:26:08 0:08:26 
  56   41     5 M45-49  313 Stephen Camacho          47  M  Colorado Springs CO 0:26:18 0:26:11 0:08:27 
  57   42     1 M15-19   74 Will Ross                16  M  Colorado Springs CO 0:26:55 0:26:12 0:08:27 
  58   16     2 F50-54  232 Jenifer Ping             53  F  Colorado Springs CO 0:26:25 0:26:20 0:08:30 
  59   17     1 F35-39  397 Christina Miner          39  F  Colorado Springs CO 0:26:25 0:26:21 0:08:30 
  60   43     1 M70-74  524 Elliott Henry            70  M  Frisco           CO 0:26:34 0:26:31 0:08:33 
                            New Age-Group Course Record!!! Age-Group: M70-98
                            Previous Record:  0:26:47, set in 2009 by Glen Ash
                                              age 71, from Colorado Springs CO


OPlc GPlc AGPlc AGrp   Bib  Name                    Age Sex City             St Gun     Chip    Pace    
  61   18     3 F45-49  256 Carri Strand Crowe       48  F  Colorado Springs CO 0:27:24 0:26:56 0:08:41 
  62   44     3 M01-14  396 Holden DeBord            12  M  Monument         CO 0:27:07 0:27:03 0:08:44 
  63   19     2 F35-39  221 Mary Murphy              35  F  Colorado Springs CO 0:27:11 0:27:03 0:08:44 
  64   45     5 M40-44  466 Joseph Hoover            42  M  Colorado Springs CO 0:27:35 0:27:03 0:08:44 
  65   46     4 M01-14  796 Jasper Iaconis           12  M  Colorado Springs CO 0:27:08 0:27:03 0:08:44 
  66   47     7 M30-34  881 Neil Caruso              34  M  Colorado Springs CO 0:27:41 0:27:10 0:08:46 
  67   48     5 M20-24  777 Sean Konik               22  M  Colorado Springs CO 0:27:51 0:27:11 0:08:46 
  68   20     4 F45-49  619 Soyeun Chu               46  F  Colorado Springs CO 0:27:19 0:27:12 0:08:46 
  69   49     6 M40-44  620 Doug Lash                41  M  Colorado Springs CO 0:27:20 0:27:13 0:08:47 
  70   21     3 F01-14 3467 Isabella Flores          13  F  Colorado Springs CO 0:27:17 0:27:17 0:08:48 
  71   50     7 M40-44   61 Jason Daily              41  M  Colorado Springs CO 0:27:24 0:27:18 0:08:48 
  72   51     2 M65-69  875 Darrell Simpkins         66  M  West End         NC 0:27:20 0:27:18 0:08:48 
  73   22     3 F30-34  411 Chantel Anderson         31  F  Colorado Springs CO 0:27:35 0:27:24 0:08:50 
  74   52     3 M60-64 3962 Jon Cornick              60  M  Colorado Springs CO 0:27:32 0:27:25 0:08:51 
  75   23     5 F45-49  911 Kristin Abernethy        46  F  Colorado Springs CO 0:27:31 0:27:25 0:08:51 
  76   24     3 F40-44  252 Amelia Vrabel            41  F  Colorado Springs CO 0:27:34 0:27:27 0:08:51 
  77   25     2 F25-29   32 Jessica Wong             26  F  Colorado Springs CO 0:28:11 0:27:27 0:08:51 
  78   53     6 M55-59 3964 David Short              55  M  Frisco           TX 0:27:27 0:27:27 0:08:51 
  79   54     2 M35-39  495 Josh Marcus              37  M  Colorado Springs CO 0:28:01 0:27:31 0:08:53 
  80   55     7 M50-54  959 Alan Bridges             54  M  Colorado Springs CO 0:27:44 0:27:31 0:08:53 

OPlc GPlc AGPlc AGrp   Bib  Name                    Age Sex City             St Gun     Chip    Pace    
  81   56     8 M50-54  309 Gregory Hospodor         52  M  Colorado Springs CO 0:27:46 0:27:34 0:08:54 
  82   57     6 M25-29  767 Raymond Fisco            26  M  Colorado Springs CO 0:28:04 0:27:41 0:08:56 
  83   58     4 M60-64  778 Jeff Thomas              60  M  Colorado Springs CO 0:27:50 0:27:43 0:08:56 
  84   59     3 M35-39  891 David Williams           38  M  Colorado Springs CO 0:28:06 0:27:44 0:08:57 
  85   26     3 F35-39  903 Elizabeth Hammerman      36  F  Menlo Park       CA 0:28:58 0:27:44 0:08:57 
  86   60     9 M50-54  677 Steve Krejci             52  M  Colorado Springs CO 0:27:56 0:27:46 0:08:57 
  87   61     4 M35-39  273 Zachary Hammel           35  M  Colorado Springs CO 0:28:11 0:27:46 0:08:57 
  88   27     4 F01-14 3904 Sydney Wasson            14  F                      0:28:34 0:27:47 0:08:58 
  89   28     1 F15-19  315 Madison Zawacki          18  F  Denver           CO 0:28:17 0:27:53 0:09:00 
  90   62     6 M45-49  768 Tim Shaw                 45  M  Colorado Springs CO 0:28:00 0:27:55 0:09:00 
  91   29     6 F45-49   26 Joann Lambert            48  F  Colorado Springs CO 0:28:08 0:28:02 0:09:03 
  92   63     1 M75-79  996 Keanne Fisher            75  M  Colorado Springs CO 0:28:18 0:28:03 0:09:03 
  93   64     2 M15-19  775 Grady Eaton              16  M  Colorado Springs CO 0:29:07 0:28:13 0:09:06 
  94   65     7 M45-49  532 Julio Narvaez            49  M  Colorado Springs CO 0:28:20 0:28:13 0:09:06 
  95   30     4 F30-34   30 Jennifer Cancellier      33  F  Colorado Springs CO 0:28:33 0:28:17 0:09:07 
  96   66     7 M55-59  709 Jeffrey Jury             56  M  Fountain         CO 0:28:30 0:28:23 0:09:09 
  97   67     8 M55-59  750 Paul Konik               56  M  Colorado Springs CO 0:29:05 0:28:26 0:09:10 
  98   68     8 M45-49  275 Kenny Crochet            48  M  Colorado Springs CO 0:29:31 0:28:28 0:09:11 
  99   31     5 F20-24   73 Chloe Ross               20  F  Colorado Springs CO 0:29:15 0:28:33 0:09:13 
 100   69     2 M70-74  710 Angus Morrison           73  M  Colorado Springs CO 0:28:52 0:28:39 0:09:15 

OPlc GPlc AGPlc AGrp   Bib  Name                    Age Sex City             St Gun     Chip    Pace    
 101   70     8 M30-34  497 Matthew Cleveland        32  M  Colorado Springs CO 0:29:04 0:28:40 0:09:15 
 102   32     4 F40-44  878 Heather Wagner           44  F  Colorado Springs CO 0:29:40 0:28:45 0:09:16 
 103   71    10 M50-54  255 Kirk Crowe               51  M  Colorado Springs CO 0:29:13 0:28:46 0:09:17 
 104   72     5 M60-64  389 Don Byers                60  M  Colorado Springs CO 0:28:53 0:28:46 0:09:17 
 105   33     5 F30-34  387 Sheva Khalafbeigi        32  F  Colorado Springs CO 0:29:18 0:28:52 0:09:19 
 106   34     7 F45-49  917 Pamela Farmer            48  F  Colorado Springs CO 0:29:18 0:28:53 0:09:19 
 107   35     6 F20-24   49 Julia Best               24  F  Denver           CO 0:29:09 0:28:54 0:09:19 
 108   73     6 M20-24   48 Jacob Best               24  M  Denver           CO 0:29:10 0:28:54 0:09:19 
 109   74     9 M45-49  999 Anthony Flones           45  M  Colorado Springs CO 0:29:42 0:29:02 0:09:22 
 110   36     3 F25-29  907 Amanda Koth              27  F  Colorado Springs CO 0:30:03 0:29:03 0:09:22 
 111   75    11 M50-54  734 Jim Rudolph              54  M  Colorado Springs CO 0:29:43 0:29:03 0:09:22 
 112   37     5 F01-14  870 Alita Alvarez            10  F  Colorado Springs CO 0:29:47 0:29:04 0:09:23 
 113   38     6 F30-34  496 Erin Wahler-Cleveland    33  F  Colorado Springs CO 0:29:29 0:29:05 0:09:23 
 114   76     3 M15-19  765 Hunter Driscoll          15  M  Falcon           CO 0:29:15 0:29:05 0:09:23 
 115   77     4 M15-19  305 Connor McNeil            18  M  Colorado Springs CO 0:29:51 0:29:08 0:09:24 
 116   78    12 M50-54   12 Mike Kloenne             53  M  Colorado Springs CO 0:29:56 0:29:11 0:09:25 
 117   39     5 F40-44  606 Charlotte McClure        44  F  Colorado Springs CO 0:29:43 0:29:12 0:09:25 
 118   79    13 M50-54  780 Rodney Reyes             50  M  Colorado Springs CO 0:29:25 0:29:15 0:09:26 
 119   80     5 M35-39  904 Cliff Yaney              39  M  Fountain         CO 0:29:29 0:29:20 0:09:28 
 120   81    14 M50-54  126 Kenneth Buckey           54  M  Colorado Springs CO 0:29:50 0:29:20 0:09:28 

OPlc GPlc AGPlc AGrp   Bib  Name                    Age Sex City             St Gun     Chip    Pace    
 121   40     7 F20-24  556 Beth Burns               24  F  Colorado Springs CO 0:29:41 0:29:22 0:09:28 
 122   41     2 F55-59    2 Karen Barry              59  F  Colorado Springs CO 0:29:29 0:29:23 0:09:29 
 123   42     8 F45-49  837 Mary Griego              46  F  Colorado Springs CO 0:30:36 0:29:23 0:09:29 
 124   43     2 F15-19 2525 Cora Ferguson            15  F  Colorado Springs CO 0:30:37 0:29:28 0:09:30 
 125   82    10 M45-49  489 John Seusy               45  M  Colorado Springs CO 0:29:35 0:29:28 0:09:30 
 126   83    15 M50-54  982 Doug Cullison            50  M  Pueblo           CO 0:30:11 0:29:30 0:09:31 
 127   44     6 F40-44  366 Tracy Kinsley            43  F  Manitou Springs  CO 0:30:29 0:29:30 0:09:31 
 128   84     8 M40-44  360 David Myers              43  M  Colorado Springs CO 0:29:44 0:29:31 0:09:31 
 129   45     3 F50-54  628 Jen Lefevre              52  F  Woodland Park    CO 0:29:48 0:29:42 0:09:35 
 130   85     3 M65-69  909 Stephen Sager            69  M  Colorado Springs CO 0:29:58 0:29:46 0:09:36 
 131   86     7 M20-24  994 Andrew Estrada           21  M  Colorado Springs CO 0:29:49 0:29:46 0:09:36 
 132   46     4 F50-54  392 Roxanne Ilse             53  F  Colorado Springs CO 0:30:50 0:29:53 0:09:38 
 133   87     9 M55-59  674 David Watson             55  M  Colorado Springs CO 0:30:06 0:29:53 0:09:38 
 134   88    10 M55-59  391 Ken Ilse                 56  M  Colorado Springs CO 0:30:52 0:29:54 0:09:39 
 135   89     9 M30-34  924 Aaron Paul               30  M  Colorado Springs CO 0:30:37 0:29:55 0:09:39 
 136   90     8 M20-24  655 Morgan Chapman           21  M  Colorado Springs CO 0:30:25 0:29:57 0:09:40 
 137   47     7 F40-44   82 Cassandra Krenz          41  F  Pueblo           CO 0:30:19 0:29:59 0:09:40 
 138   91     4 M65-69  880 Jim Beckenhaupt          69  M  Colorado Springs CO 0:30:09 0:30:00 0:09:41 
 139   92    10 M30-34 3446 Justin Morgan            32  M  Colorado Springs CO 0:30:47 0:30:02 0:09:41 
 140   93    16 M50-54  138 Ken Trousdale            54  M  Peyton           CO 0:30:12 0:30:02 0:09:41 

OPlc GPlc AGPlc AGrp   Bib  Name                    Age Sex City             St Gun     Chip    Pace    
 141   94     5 M15-19  949 Lexter Lovejoy           16  M  Colorado Springs CO 0:30:58 0:30:10 0:09:44 
 142   48     4 F35-39  230 Caty Rozema              37  F  Colorado Springs CO 0:30:56 0:30:11 0:09:44 
 143   49     7 F30-34  233 Amanda Fletemeyer        34  F  Colorado Springs CO 0:30:14 0:30:11 0:09:44 
 144   95    11 M55-59  871 Chris Alvarez            55  M  Colorado Springs CO 0:30:56 0:30:13 0:09:45 
 145   50     3 F15-19  950 Seyonna Lovejoy          15  F  Colorado Springs CO 0:31:03 0:30:16 0:09:46 
 146   96    17 M50-54   16 Stuart Shelton           54  M  Colorado Springs CO 0:31:06 0:30:19 0:09:47 
 147   51     8 F20-24  749 Tessa Konik              20  F  Colorado Springs CO 0:30:59 0:30:19 0:09:47 
 148   52     8 F40-44  983 Monica Turley            43  F  Co               CO 0:31:04 0:30:22 0:09:48 
 149   97     7 M25-29  981 Miles Mahan              27  M  Colorado Springs CO 0:31:15 0:30:23 0:09:48 
 150   98     6 M35-39 2551 Scot Ferguson            36  M  Colorado Springs CO 0:31:33 0:30:23 0:09:48 
 151   53     9 F45-49 3954 Mechelle Haflich         46  F                      0:30:51 0:30:24 0:09:48 
 152   54     5 F35-39  461 Jeana Connaughton        37  F  Colorado Springs CO 0:31:15 0:30:30 0:09:50 
 153   55     6 F35-39  921 Tara Hawbaker            37  F  Manitou Springs  CO 0:30:58 0:30:31 0:09:51 
 154   56    10 F45-49  415 Casey Campbell           48  F  Colorado Springs CO 0:30:48 0:30:33 0:09:51 
 155   99    11 M45-49  404 Mark Rieker              45  M  Colorado Springs CO 0:31:01 0:30:33 0:09:51 
 156  100     9 M40-44 3984 Matt Laubhan             40  M  Colorado Springs CO 0:32:02 0:30:39 0:09:53 
 157  101    11 M30-34  978 Tom Quinene              32  M  Colorado Springs CO 0:31:57 0:30:40 0:09:54 
 158  102     6 M60-64 3948 Luke Cammack             63  M  Manitou Springs  CO 0:30:53 0:30:47 0:09:56 
 159   57     6 F01-14  441 Kaya McGrath             12  F  Colorado Springs CO 0:31:15 0:30:52 0:09:57 
 160  103    12 M45-49  653 Neil Chapman             48  M  Colorado Springs CO 0:31:19 0:30:53 0:09:58 

OPlc GPlc AGPlc AGrp   Bib  Name                    Age Sex City             St Gun     Chip    Pace    
 161   58     7 F35-39  703 Blaine Clarke            36  F  Colorado Springs CO 0:31:57 0:31:01 0:10:00 
 162  104     6 M15-19  359 Jackson Garner           18  M  Colorado Springs CO 0:31:28 0:31:02 0:10:01 
 163  105     5 M01-14  358 Abraham Garner           11  M  Colorado Springs CO 0:31:29 0:31:02 0:10:01 
 164   59     9 F20-24  557 Laura Boyer              24  F  Colorado Springs CO 0:31:22 0:31:05 0:10:02 
 165   60     7 F01-14 3480 Olivia Flores             9  F  Colorado Springs CO 0:31:47 0:31:07 0:10:02 
 166   61     9 F40-44 3466 Holly Flores             42  F  Colorado Springs CO 0:31:47 0:31:07 0:10:02 
 167  106     9 M20-24  682 Joey Sanchez             24  M  Colorado Springs CO 0:31:27 0:31:07 0:10:02 
 168   62     8 F01-14  632 Ellie Kam                12  F  Colorado Springs CO 0:31:52 0:31:11 0:10:04 
 169   63    10 F40-44  272 Mary Hammel              41  F  Colorado Springs CO 0:31:37 0:31:11 0:10:04 
 170   64     5 F50-54  602 Becky Crabbs             54  F  Colorado Springs CO 0:31:38 0:31:21 0:10:07 
 171   65     4 F25-29  752 Cat Rowan                28  F  Fountain         CO 0:31:22 0:31:22 0:10:07 
 172   66     5 F25-29  367 Mary Bryant              29  F  Colorado Springs CO 0:31:50 0:31:25 0:10:08 
 173   67     8 F30-34  112 Sabrina Cotta            33  F  Colorado Springs CO 0:31:50 0:31:27 0:10:09 
 174   68     9 F30-34 3947 Lisa Percival            33  F  Calhan           CO 0:32:40 0:31:27 0:10:09 
 175   69     6 F25-29  720 Caitlin Wiebe            28  F  Colorado Springs CO 0:31:42 0:31:31 0:10:10 
 176  107     8 M25-29  721 Greg Wiebe               29  M  Colorado Springs CO 0:31:42 0:31:31 0:10:10 
 177   70    11 F45-49   38 Jill Bradley             48  F  Colorado Springs CO 0:32:39 0:31:37 0:10:12 
 178   71     6 F50-54  555 Michelle Christiansen    50  F  Colorado Springs CO 0:31:52 0:31:37 0:10:12 
 179  108     7 M60-64 2509 David Daley              64  M  Alexandria       VA 0:32:49 0:31:39 0:10:13 
 180   72     1 F60-64  666 Kate Rpahael             60  F  Colorado Springs CO 0:32:52 0:31:41 0:10:13 

OPlc GPlc AGPlc AGrp   Bib  Name                    Age Sex City             St Gun     Chip    Pace    
 181  109    12 M55-59  451 Frank Parker Jr          58  M  Colorado Springs CO 0:32:18 0:31:42 0:10:14 
 182  110    18 M50-54  671 Kerry Morrone            53  M  Colorado Springs CO 0:32:23 0:31:43 0:10:14 
 183   73    11 F40-44  613 Katrina Yepez            43  F  Colorado Springs CO 0:32:40 0:31:45 0:10:15 
 184  111     7 M15-19  829 Noah Dent                18  M  Colorado Springs CO 0:32:18 0:31:49 0:10:16 
 185   74     7 F50-54  657 Jackie Price             53  F  Colorado Springs CO 0:32:12 0:31:50 0:10:16 
 186   75     3 F55-59  616 Milissa Chesonis         56  F  Colorado Springs CO 0:32:12 0:31:50 0:10:16 
 187  112    19 M50-54  268 Steve Silloway           54  M  Colorado Springs CO 0:31:59 0:31:51 0:10:16 
 188  113    20 M50-54   19 Ty Paywa                 50  M  Colorado Springs CO 0:32:15 0:31:59 0:10:19 
 189  114    21 M50-54  658 Larry Price              54  M  Colorado Springs CO 0:32:24 0:32:03 0:10:20 
 190   76     4 F15-19  504 Audrey Hort              16  F  Colorado Springs CO 0:32:42 0:32:03 0:10:20 
 191  115    13 M55-59  554 John Christiansen        56  M  Colorado Springs CO 0:32:21 0:32:06 0:10:21 
 192   77     8 F35-39  362 Megan Crabtree           36  F  Colorado Springs CO 0:32:47 0:32:10 0:10:23 
 193   78     8 F50-54  440 Kelley McGrath           50  F  Colorado Springs CO 0:32:35 0:32:12 0:10:23 
 194  116    12 M30-34  157 RJ Dwyer                 31  M  Denver           CO 0:32:22 0:32:21 0:10:26 
 195   79     5 F15-19  470 Megan Wilson             16  F  Peyton           CO 0:32:36 0:32:26 0:10:28 
 196  117    14 M55-59  544 Garry Hill               57  M  Colorado Springs CO 0:32:49 0:32:29 0:10:29 
 197   80    12 F40-44 3965 Carey Carpenter          40  F  Anchorage        AK 0:33:26 0:32:36 0:10:31 
 198   81    13 F40-44 3966 Dawn Wilson              41  F  Morrison         CO 0:33:26 0:32:36 0:10:31 
 199  118     7 M35-39  790 Eugene Garrett           37  M  Pueblo           CO 0:33:19 0:32:37 0:10:31 
 200   82     9 F35-39  473 Evelyn Spencer           35  F  Colorado Springs CO 0:33:04 0:32:38 0:10:32 

OPlc GPlc AGPlc AGrp   Bib  Name                    Age Sex City             St Gun     Chip    Pace    
 201  119     8 M35-39  958 Damon Tholson            37  M  Pueblo           CO 0:33:22 0:32:40 0:10:32 
 202  120    10 M40-44  579 Harold Anderson          43  M  Colorado Springs CO 0:34:04 0:32:41 0:10:33 
 203   83    10 F35-39  528 Selina Stonecipher       39  F  Colorado Springs CO 0:32:53 0:32:43 0:10:33 
 204   84    14 F40-44  527 Dawn Henderson           43  F  Colorado Springs CO 0:32:55 0:32:43 0:10:33 
 205  121     8 M60-64  997 Bruce Barrell            60  M  Colorado Springs CO 0:33:05 0:32:52 0:10:36 
 206  122     8 M15-19  995 Max Barrell              16  M                      0:33:06 0:32:53 0:10:36 
 207  123     3 M70-74   13 Frank Morrey             74  M  Colorado Springs CO 0:33:39 0:32:53 0:10:36 
 208   85    15 F40-44  449 Jacquelyn Puett          40  F  Colorado Springs CO 0:33:58 0:32:56 0:10:37 
 209   86     6 F15-19  569 Alexa Lamack             15  F  Colorado Springs CO 0:33:44 0:32:56 0:10:37 
 210   87     7 F15-19  589 Danielle Vitulli         17  F  Colorado Springs CO 0:33:57 0:32:57 0:10:38 
 211   88    10 F20-24  654 Lexy Chapman             23  F  Colorado Springs CO 0:33:29 0:33:01 0:10:39 
 212  124     9 M35-39  385 Nicholas Latier          35  M  Colorado Springs CO 0:34:05 0:33:05 0:10:40 
 213  125    22 M50-54  236 Scott Walker             54  M  Castle Rock      CO 0:33:52 0:33:05 0:10:40 
 214  126     5 M65-69  124 Hector Leyba             66  M  Penrose          CO 0:33:05 0:33:05 0:10:40 
 215  127    13 M45-49  550 Ronald Duncan            49  M  Colorado Springs CO 0:33:58 0:33:06 0:10:41 
 216  128    23 M50-54  764 Jim Driscoll             50  M  Falcon           CO 0:33:19 0:33:10 0:10:42 
 217  129    11 M40-44  735 Charles Patchet          40  M  Colorado Springs CO 0:34:02 0:33:11 0:10:42 
 218   89     9 F01-14  614 Anna Yepez               14  F  Colorado Springs CO 0:34:17 0:33:21 0:10:45 
 219   90    16 F40-44  337 Dawn Escarcega           41  F  Peyton           CO 0:33:31 0:33:21 0:10:45 
 220  130    12 M40-44  803 Christian Malacara       40  M  Colorado Springs CO 0:34:42 0:33:22 0:10:46 

OPlc GPlc AGPlc AGrp   Bib  Name                    Age Sex City             St Gun     Chip    Pace    
 221  131    15 M55-59  505 Greg Hiltbrand           56  M  Colorado Springs CO 0:34:31 0:33:24 0:10:46 
 222   91     7 F25-29  507 Casey VanWagenen         29  F  Colorado Springs CO 0:34:31 0:33:25 0:10:47 
 223   92    17 F40-44  701 Dawn Boden               44  F  Colorado Springs CO 0:33:42 0:33:27 0:10:47 
 224   93    12 F45-49  418 Gina Gorden-Rose         48  F  Woodland Park    CO 0:34:16 0:33:28 0:10:48 
 225  132    16 M55-59  375 Jeff Huddleston          58  M  Colorado Springs CO 0:34:20 0:33:32 0:10:49 
 226   94    18 F40-44  799 Danielle Oller           40  F  Colorado Springs CO 0:34:21 0:33:32 0:10:49 
 227   95    11 F35-39  834 Jami Leahy               39  F  Colorado Springs CO 0:34:33 0:33:33 0:10:49 
 228  133     6 M01-14  835 Luke Leahy               12  M  Colorado Springs CO 0:34:34 0:33:34 0:10:50 
 229   96    12 F35-39  420 Ardell Stoner            38  F  Colorado Springs CO 0:34:19 0:33:34 0:10:50 
 230   97     4 F55-59  187 Sheryl Hudson            57  F  Colorado Springs CO 0:33:59 0:33:35 0:10:50 
 231  134     7 M01-14   47 Lucas Flory              10  M  Colorado Springs CO 0:34:03 0:33:41 0:10:52 
 232   98    10 F30-34  856 Edna Keller              33  F  Fountain         CO 0:33:59 0:33:45 0:10:53 
 233  135    13 M40-44   46 Jeff Flory               40  M  Colorado Springs CO 0:34:08 0:33:46 0:10:54 
 234   99    13 F45-49  956 Joann Hancock            45  F  Colorado Springs CO 0:34:32 0:33:47 0:10:54 
 235  136    13 M30-34  561 Brady Nachtrieb          30  M  Colorado Springs CO 0:35:05 0:33:52 0:10:55 
 236  100    11 F30-34  293 Lara Ashley              31  F  Colorado Springs CO 0:34:32 0:33:53 0:10:56 
 237  101    12 F30-34  895 Tiffany Williams         33  F  Colorado Springs CO 0:34:18 0:33:53 0:10:56 
 238  137    10 M35-39 3974 Chris Legere             35  M                      0:33:55 0:33:55 0:10:56 
 239  138    11 M35-39 3978 Chris Arrington          37  M  Cascade          CO 0:34:11 0:33:58 0:10:57 
 240  102    13 F35-39 3979 Shannon Sufak            35  F  Colorado Springs CO 0:34:11 0:33:59 0:10:58 

OPlc GPlc AGPlc AGrp   Bib  Name                    Age Sex City             St Gun     Chip    Pace    
 241  103    14 F35-39  639 Tami Blackwell           39  F  Colorado Springs CO 0:34:35 0:33:59 0:10:58 
 242  104    19 F40-44  717 Charmaine Stingel        43  F  Colorado Springs CO 0:34:26 0:34:00 0:10:58 
 243  139     4 M70-74  478 Terry Lauhon             70  M  Colorado Springs CO 0:34:54 0:34:05 0:11:00 
 244  140    12 M35-39  783 Darren Dukart            39  M  Colorado Springs CO 0:34:31 0:34:09 0:11:01 
 245  105     8 F15-19  595 Taylor Barrett           19  F  Colorado Springs CO 0:34:16 0:34:11 0:11:02 
 246  141    14 M45-49  442 Martin McGrath           48  M  Colorado Springs CO 0:34:34 0:34:11 0:11:02 
 247  106    15 F35-39  812 Meredith Morse           36  F  Colorado Springs CO 0:34:37 0:34:11 0:11:02 
 248  142    24 M50-54  322 William Ewell            50  M  Colorado Springs CO 0:34:45 0:34:14 0:11:03 
 249  143    13 M35-39  889 David Jones              39  M  Colorado Springs CO 0:35:02 0:34:14 0:11:03 
 250  107    14 F45-49  286 Laurie Keller            48  F  Colorado Springs CO 0:35:03 0:34:16 0:11:03 
 251  108    20 F40-44  284 Deborah Marques          41  F  Colorado Springs CO 0:35:03 0:34:17 0:11:04 
 252  109    15 F45-49  321 Michelle Callaham        45  F  Monument         CO 0:34:50 0:34:18 0:11:04 
 253  110    10 F01-14  952 Baisly Lovejoy           11  F  Colorado Springs CO 0:35:09 0:34:20 0:11:05 
 254  144     2 M75-79  705 Joe Scarlett             78  M  Colorado Springs CO 0:35:12 0:34:26 0:11:06 
 255  111    21 F40-44  860 Debbie Lowe              44  F  Colorado Springs CO 0:34:58 0:34:28 0:11:07 
 256  112    13 F30-34  423 Elizabeth Moxley         31  F  Colorado Springs CO 0:35:45 0:34:31 0:11:08 
 257  145    25 M50-54  998 David Sweetman           54  M  Colorado Springs CO 0:35:01 0:34:33 0:11:09 
 258  113    16 F35-39  951 McKenna Lovejoy          36  F  Colorado Springs CO 0:35:23 0:34:34 0:11:09 
 259  146     9 M25-29  877 Geoffrey Fryer           29  M  Colorado Springs CO 0:35:51 0:34:37 0:11:10 
 260  114     9 F50-54   91 Gwendolyn Wells          50  F  Monument         CO 0:35:13 0:34:40 0:11:11 

OPlc GPlc AGPlc AGrp   Bib  Name                    Age Sex City             St Gun     Chip    Pace    
 261  115    17 F35-39  147 Elizabeth Haubrich       37  F  Colorado Springs CO 0:35:35 0:34:41 0:11:11 
 262  116    18 F35-39  859 Katarina Calcagno        38  F  Colorado Springs CO 0:35:37 0:34:43 0:11:12 
 263  117    22 F40-44  250 Kelly Jennings           41  F  Colorado Springs CO 0:35:15 0:34:44 0:11:12 
 264  118    11 F01-14  635 Ruby Muhl                12  F  Colorado Springs CO 0:35:31 0:34:51 0:11:15 
 265  147    14 M40-44  363 Paul Wakino              43  M  Colorado Springs CO 0:35:32 0:34:52 0:11:15 
 266  148    10 M20-24  568 Cameron Lamack           20  M  Colorado Springs CO 0:35:40 0:34:52 0:11:15 
 267  149    15 M40-44  341 Scott Mudge              41  M  Colorado Springs CO 0:35:25 0:34:54 0:11:15 
 268  119    19 F35-39  945 Kara Beiswanger          35  F  Colorado Springs CO 0:35:06 0:34:55 0:11:16 
 269  120    16 F45-49  467 Allison Hoover           45  F  Colorado Springs CO 0:35:27 0:34:55 0:11:16 
 270  121    14 F30-34  806 Briana Rickertsen        32  F  Colorado Springs CO 0:36:04 0:34:56 0:11:16 
 271  122    15 F30-34 3959 Cerian Gibbes            34  F  Colorado Springs CO 0:35:07 0:34:56 0:11:16 
 272  123    23 F40-44  340 Leslie Mudge             42  F  Colorado Springs CO 0:35:29 0:34:57 0:11:16 
 273  150    26 M50-54   18 Bill Hallam              51  M  Colorado Springs CO 0:35:47 0:35:01 0:11:18 
 274  124    10 F50-54    7 Jill Hessek              52  F  Colorado Springs CO 0:35:15 0:35:01 0:11:18 
 275  125    24 F40-44  585 Sarah Hardy              41  F  Colorado Springs CO 0:35:31 0:35:02 0:11:18 
 276  126    12 F01-14  398 Mattie McNeil            13  F  Colorado Springs CO 0:35:47 0:35:03 0:11:18 
 277  127     5 F55-59  545 Elizabeth Urata          59  F  Colorado Springs CO 0:35:07 0:35:04 0:11:19 
 278  128     6 F55-59  237 Cathy Murray             55  F  Aurora           CO 0:35:56 0:35:09 0:11:20 
 279  151    14 M35-39   14 Kevin Darby              38  M  Colorado Springs CO 0:35:11 0:35:11 0:11:21 
 280  152    15 M45-49  269 Michael Schafer          47  M  Colorado Springs CO 0:35:28 0:35:12 0:11:21 

OPlc GPlc AGPlc AGrp   Bib  Name                    Age Sex City             St Gun     Chip    Pace    
 281  129    16 F30-34  249 Amanda Musselwhite       34  F  Fountain         CO 0:36:27 0:35:15 0:11:22 
 282  153    17 M55-59  975 Ronald Rockwell          58  M                      0:35:50 0:35:22 0:11:25 
 283  130    17 F30-34  798 Chelsea Berlingieri      33  F  Colorado Springs CO 0:36:37 0:35:22 0:11:25 
 284  131    25 F40-44   67 Amy Duffy                41  F  Cascade          CO 0:35:49 0:35:26 0:11:26 
 285  132    18 F30-34  243 Nicole Piraino           32  F  Aurora           CO 0:36:02 0:35:28 0:11:26 
 286  133    17 F45-49  938 Marigny Klaber           46  F  Colorado Springs CO 0:36:18 0:35:29 0:11:27 
 287  134    11 F50-54  355 Lisa Garner              51  F  Colorado Springs CO 0:35:55 0:35:29 0:11:27 
 288  135     8 F25-29  206 Brianne Simmons          29  F  Colorado Springs CO 0:36:01 0:35:32 0:11:28 
 289  154    15 M35-39  105 Chad Haynes              38  M  Colorado Springs CO 0:36:02 0:35:33 0:11:28 
 290  136    26 F40-44  955 Kristen Washburn         40  F  Monument         CO 0:35:45 0:35:34 0:11:28 
 291  137     9 F25-29  754 Mary Cady                29  F  Colorado Springs CO 0:36:05 0:35:41 0:11:31 
 292  138    18 F45-49  472 Patti Rose               49  F  Calhan           CO 0:35:42 0:35:42 0:11:31 
 293  155    14 M30-34 3961 Trevor Whitaker          30  M  Colorado Springs CO 0:36:33 0:35:47 0:11:33 
 294  139    19 F30-34  757 Zoe Buck Bracey          30  F  Colorado Springs CO 0:36:32 0:35:47 0:11:33 
 295  140    27 F40-44  684 Tonya Martin             40  F  Colorado Springs CO 0:36:15 0:35:48 0:11:33 
 296  141    20 F30-34  586 Shannon Whiteway         30  F  Colorado Springs CO 0:36:17 0:35:50 0:11:34 
 297  142    12 F50-54  540 Janna Thornsby           54  F  Colorado Springs CO 0:36:03 0:35:56 0:11:35 
 298  156    10 M25-29  732 Andre Blyth              27  M  Colorado Springs CO 0:36:38 0:35:57 0:11:36 
 299  143    28 F40-44  308 Bridget Meyers           44  F  Colorado Springs CO 0:36:43 0:35:57 0:11:36 
 300  157     8 M01-14  968 Sebastian Schulz         11  M  Castle Rock      CO 0:36:00 0:35:58 0:11:36 

OPlc GPlc AGPlc AGrp   Bib  Name                    Age Sex City             St Gun     Chip    Pace    
 301  144    10 F25-29  731 Amelia Blyth             26  F  Colorado Springs CO 0:36:40 0:35:58 0:11:36 
 302  145    19 F45-49  672 Jill Ciolli              46  F  Colorado Springs CO 0:36:50 0:35:59 0:11:36 
 303  158    16 M45-49  458 Steve Warmingham         48  M  Colorado Springs CO 0:37:18 0:36:00 0:11:37 
 304  159     9 M01-14  234 Austin VanNortrick       13  M  Colorado Springs CO 0:36:07 0:36:02 0:11:37 
 305  146    20 F45-49  630 Mako Kam                 46  F  Colorado Springs CO 0:36:46 0:36:05 0:11:38 
 306  147    13 F01-14  673 Gina Ciolli              11  F  Colorado Springs CO 0:36:57 0:36:05 0:11:38 
 307  160    17 M45-49  629 Ben Kam                  47  M  Colorado Springs CO 0:36:49 0:36:08 0:11:39 
 308  161     6 M65-69  152 David Markwalder         69  M  Colorado Springs CO 0:36:17 0:36:08 0:11:39 
 309  148    13 F50-54  770 Laurel Campbell          53  F  Colorado Springs CO 0:36:30 0:36:10 0:11:40 
 310  162    16 M40-44  910 Tommy Manning            40  M  Colorado Springs CO 0:36:42 0:36:12 0:11:41 
 311  149    29 F40-44  990 Staci McMullen           40  F  Colorado Springs CO 0:36:18 0:36:15 0:11:42 
 312  150    14 F50-54  139 Cheryl Trousdale         53  F  Peyton           CO 0:36:18 0:36:18 0:11:43 
 313  151    14 F01-14  741 Brooke Ballenger         12  F  Colorado Springs CO 0:36:24 0:36:20 0:11:43 
 314  152    21 F45-49  395 Heidi Scherer            47  F  Monument         CO 0:36:25 0:36:21 0:11:44 
 315  153    21 F30-34  948 Jacque Fuller            30  F  Peyton           CO 0:36:32 0:36:21 0:11:44 
 316  154     1 F65-69   96 June Cohen               69  F  Colorado Springs CO 0:36:22 0:36:22 0:11:44 
 317  155    22 F30-34  828 Sharra Miller            34  F  Peyton           CO 0:36:52 0:36:22 0:11:44 
 318  163    10 M01-14  195 Caden Bailey             14  M  Colorado Springs CO 0:37:05 0:36:23 0:11:44 
 319  164    16 M35-39  974 Michael Quinene          35  M  Denver           CO 0:37:39 0:36:23 0:11:44 
 320  156    15 F50-54 3953 Andrea Cichosz           53  F  Colorado Springs CO 0:37:33 0:36:23 0:11:44 

OPlc GPlc AGPlc AGrp   Bib  Name                    Age Sex City             St Gun     Chip    Pace    
 321  165    18 M45-49  986 Curtis Claar             49  M  Colorado Springs CO 0:37:10 0:36:27 0:11:45 
 322  166     7 M65-69  776 Don Stauder              69  M  Colorado Springs CO 0:36:53 0:36:30 0:11:46 
 323  167    11 M25-29  894 Matthew Abeyta           29  M  Colorado Springs CO 0:36:40 0:36:32 0:11:47 
 324  157     7 F55-59  377 Della Coffelt            57  F  Peyton           CO 0:37:05 0:36:35 0:11:48 
 325  158    20 F35-39  330 Jody Vazquez             35  F  Fountain         CO 0:37:15 0:36:46 0:11:52 
 326  159    15 F01-14  991 Delanie McMullen         10  F                      0:36:50 0:36:47 0:11:52 
 327  160    11 F25-29  789 Sarah Heath              26  F  Colorado Springs CO 0:37:09 0:36:52 0:11:54 
 328  161    23 F30-34  192 Nikki Rutherford         33  F  Peyton           CO 0:37:43 0:36:52 0:11:54 
 329  162    22 F45-49  412 Kyla Greenfield          48  F  Colorado Springs CO 0:37:07 0:36:56 0:11:55 
 330  163    11 F20-24  660 Hannah Kinderwater       24  F  Colorado Springs CO 0:37:27 0:36:58 0:11:55 
 331  164    21 F35-39  646 Shari Griffin            37  F  Colorado Springs CO 0:37:20 0:37:06 0:11:58 
 332  165    23 F45-49  247 Pam Hoskins              48  F  Colorado Springs CO 0:38:10 0:37:10 0:11:59 
 333  166    30 F40-44  769 Karen Shaw               43  F  Colorado Springs CO 0:37:39 0:37:11 0:12:00 
 334  167    31 F40-44  824 Melissa Seidenberg       40  F  Colorado Springs CO 0:38:13 0:37:14 0:12:01 
 335  168    27 M50-54  898 Bill Lacey               53  M  Colorado Springs CO 0:37:46 0:37:16 0:12:01 
 336  168     8 F55-59  390 Vicki McCann             59  F  Colorado Springs CO 0:38:03 0:37:18 0:12:02 
 337  169     9 F55-59  897 Ruth Hiatt Lacey         57  F  Colorado Springs CO 0:37:50 0:37:20 0:12:03 
 338  169     8 M65-69  719 John Fields              68  M  Manitou Springs  CO 0:37:39 0:37:28 0:12:05 
 339  170     2 F60-64  468 Felicity Amechazurra     60  F  Colorado Springs CO 0:38:40 0:37:30 0:12:06 
 340  171    16 F01-14  261 Meghan Stengel            9  F  Colorado Springs CO 0:38:19 0:37:36 0:12:08 

OPlc GPlc AGPlc AGrp   Bib  Name                    Age Sex City             St Gun     Chip    Pace    
 341  170     9 M60-64   17 Brian Maguire            60  M  Colorado Springs CO 0:37:56 0:37:39 0:12:09 
 342  172    12 F25-29  905 Erin Yaney               29  F  Fountain         CO 0:37:49 0:37:40 0:12:09 
 343  171     9 M15-19  447 Donovan Vesey            18  M  Colorado Springs CO 0:39:07 0:37:45 0:12:11 
 344  172    10 M15-19  448 Brendan Vesey            17  M  Colorado Springs CO 0:39:09 0:37:48 0:12:12 
 345  173    24 F30-34  565 Ashlee Nachtrieb         31  F  Colorado Springs CO 0:39:05 0:37:50 0:12:12 
 346  173    19 M45-49  446 Brian Vesey              46  M  Colorado Springs CO 0:39:21 0:38:01 0:12:16 
 347  174    17 F01-14  786 Lily Eller               12  F  Colorado Springs CO 0:39:20 0:38:04 0:12:17 
 348  175     3 F60-64  647 Kathleen Letner          64  F  Larkspur         CO 0:38:19 0:38:06 0:12:17 
 349  176    24 F45-49  279 Katie Pace               46  F  Peyton           CO 0:39:18 0:38:07 0:12:18 
 350  177    25 F45-49  189 Carrie Grover            45  F  Peyton           CO 0:38:09 0:38:09 0:12:18 
 351  178    32 F40-44  123 Kimberly Ferguson        40  F  Spring Lake      NC 0:38:30 0:38:11 0:12:19 
 352  179    33 F40-44  597 Carrie Lukins            42  F  Peyton           CO 0:38:11 0:38:11 0:12:19 
 353  180     4 F60-64  697 Jennifer Carpenter       62  F  Colorado Springs CO 0:38:40 0:38:15 0:12:20 
 354  181    34 F40-44  445 Angela Lamarca           42  F  Colorado Springs CO 0:39:37 0:38:17 0:12:21 
 355  174    15 M30-34  933 Nolan Johnson            31  M  Colorado Springs CO 0:38:53 0:38:19 0:12:22 
 356  182    25 F30-34  934 Shelby Johnson           30  F  Colorado Springs CO 0:38:57 0:38:22 0:12:23 
 357  175    10 M60-64  263 Frank Rivera             61  M  Colorado Springs CO 0:39:01 0:38:23 0:12:23 
 358  176    11 M20-24   68 Sean Duffy               21  M  Cascade          CO 0:38:49 0:38:27 0:12:24 
 359  177    28 M50-54 3927 Robert Lynde             52  M  Black Forest     CO 0:39:37 0:38:29 0:12:25 
 360  183    16 F50-54 3909 Renee Lynde              50  F  Black Forest     CO 0:39:38 0:38:30 0:12:25 

OPlc GPlc AGPlc AGrp   Bib  Name                    Age Sex City             St Gun     Chip    Pace    
 361  184    35 F40-44  260 Kelly Stengel            40  F  Colorado Springs CO 0:39:15 0:38:33 0:12:26 
 362  185    26 F45-49  525 Marla Gordon             48  F  Colorado Springs CO 0:40:00 0:38:34 0:12:26 
 363  178    11 M01-14  262 Mason Stengel             6  M  Colorado Springs CO 0:39:17 0:38:35 0:12:27 
 364  179    18 M55-59   92 Robert Wells             57  M  Monument         CO 0:39:13 0:38:40 0:12:28 
 365  186    17 F50-54  376 Mary Whitman             53  F  Colorado Springs CO 0:39:18 0:38:47 0:12:31 
 366  187     2 F65-69  726 Patricia Kule            67  F  Colorado Springs CO 0:39:36 0:38:48 0:12:31 
 367  180    16 M30-34 3465 Mathew Beach             34  M                      0:40:12 0:38:49 0:12:31 
 368  181    29 M50-54  199 Scot Phillips            50  M  Colorado Springs CO 0:40:12 0:38:54 0:12:33 
 369  182    17 M40-44 3960 Chris Lee                42  M  Colorado Springs CO 0:39:03 0:39:03 0:12:36 
 370  183    18 M40-44  588 Mark Zandarski           40  M  Colorado Springs CO 0:40:01 0:39:04 0:12:36 
 371  188    10 F55-59  254 Janet Biles              56  F  Colorado Springs CO 0:39:56 0:39:06 0:12:37 
 372  189    11 F55-59  916 Robyn Colbert            58  F  Colorado Springs CO 0:39:30 0:39:07 0:12:37 
 373  184    11 M60-64  689 Jim Massa                64  M  Wellington       CO 0:39:14 0:39:07 0:12:37 
 374  185    20 M45-49  804 Dakota Malacara          49  M  Colorado Springs CO 0:40:32 0:39:12 0:12:39 
 375  190    36 F40-44  817 Michaela Lucente-Castle  41  F  Colorado Springs CO 0:40:04 0:39:15 0:12:40 
 376  191    26 F30-34  151 Megan Bostelman          33  F  Colorado Springs CO 0:39:44 0:39:21 0:12:42 
 377  192    22 F35-39  137 Corrine Kirsch           37  F  Colorado Springs CO 0:40:45 0:39:23 0:12:42 
 378  186    19 M55-59  106 Michael McDonald         57  M  Colorado Springs CO 0:40:18 0:39:32 0:12:45 
 379  193    12 F20-24  683 Calla Ritchie            23  F  Colorado Springs CO 0:40:00 0:39:36 0:12:46 
 380  187    21 M45-49   23 Frank Poebla             47  M  Colorado Springs CO 0:40:12 0:39:41 0:12:48 

OPlc GPlc AGPlc AGrp   Bib  Name                    Age Sex City             St Gun     Chip    Pace    
 381  188    12 M01-14   83 Peter Krenz               9  M  Pueblo           CO 0:40:06 0:39:44 0:12:49 
 382  189    19 M40-44  205 David Krenz              41  M  Pueblo           CO 0:40:14 0:39:53 0:12:52 
 383  194    18 F01-14 3451 Taylor Maxfield          13  F                      0:40:40 0:40:02 0:12:55 
 384  195    12 F55-59  714 Tamara Fischer           57  F  Colorado Springs CO 0:40:14 0:40:07 0:12:56 
 385  196    13 F20-24  245 Taylor Schumacher        22  F  Castle Rock      CO 0:40:44 0:40:11 0:12:58 
 386  197    27 F45-49  394 Maylen Gaspar            49  F  Colorado Springs CO 0:41:30 0:40:12 0:12:58 
 387  198    13 F25-29  562 April Curtis             25  F  Colorado Springs CO 0:41:28 0:40:13 0:12:58 
 388  199    18 F50-54 3952 Brenda Malmberg          50  F  Colorado Springs CO 0:41:18 0:40:16 0:12:59 
 389  200    13 F55-59   98 Cora Lee Walker          55  F  Sedalia          CO 0:40:56 0:40:21 0:13:01 
 390  201    19 F50-54  742 Nina Ballenger           51  F  Colorado Springs CO 0:40:35 0:40:30 0:13:04 
 391  190    12 M60-64  659 Richard Bursell          64  M  Colorado Springs CO 0:41:49 0:40:40 0:13:07 
 392  202    37 F40-44  427 Nichola Lembergs         40  F  Colorado Springs CO 0:41:46 0:40:42 0:13:08 
 393  191    12 M25-29  559 Daniel Costales          28  M  Colorado Springs CO 0:41:47 0:40:43 0:13:08 
 394  203    14 F25-29  434 Lindsey Grace            28  F  Colorado Springs CO 0:41:22 0:40:53 0:13:11 
 395  204    19 F01-14  335 Sydney Andrus            12  F  Colorado Springs CO 0:41:01 0:40:53 0:13:11 
 396  205    27 F30-34  424 Kellee Rickenbach        32  F  Buena Vista      CO 0:41:23 0:40:54 0:13:12 
 397  206     5 F60-64  686 Dottie Digirolamo        61  F  Colorado Springs CO 0:41:07 0:40:54 0:13:12 
 398  207    28 F45-49  333 Cristina Corpuz          45  F  Colorado Springs CO 0:41:03 0:40:54 0:13:12 
 399  208    20 F50-54 3949 Lori Curtis              50  F  Colorado Springs CO 0:41:22 0:40:56 0:13:12 
 400  192    17 M35-39  855 Jarrod Long              39  M  Colorado Springs CO 0:41:25 0:41:02 0:13:14 

OPlc GPlc AGPlc AGrp   Bib  Name                    Age Sex City             St Gun     Chip    Pace    
 401  209    38 F40-44  432 Jill Smith               44  F  Woodland Park    CO 0:41:30 0:41:04 0:13:15 
 402  210    21 F50-54  781 Linda Espinosa           50  F  Colorado Springs CO 0:41:34 0:41:10 0:13:17 
 403  193    18 M35-39  331 Justin Vazquez           36  M  Fountain         CO 0:41:42 0:41:11 0:13:17 
 404  194    30 M50-54  406 Marty Brinegar           52  M  Peyton           CO 0:41:52 0:41:18 0:13:19 
 405  195    13 M60-64  852 Mike West                60  M  Monument         CO 0:42:14 0:41:22 0:13:21 
 406  211    39 F40-44  393 Jennifer Fisher          41  F  Colorado Springs CO 0:42:41 0:41:23 0:13:21 
 407  196    22 M45-49  591 Craig Seay               49  M  Colorado Springs CO 0:42:19 0:41:28 0:13:23 
 408  212    20 F01-14  572 Violette Moore           13  F  Pueblo           CO 0:42:53 0:41:29 0:13:23 
 409  197     3 M75-79  605 Hans Zimmermann          77  M  Monument         CO 0:41:41 0:41:30 0:13:23 
 410  198    13 M01-14  823 Jeremiah Hein             6  M  Colorado Springs CO 0:42:08 0:41:31 0:13:24 
 411  213    29 F45-49  819 Marvene Marcus           46  F  Guffey           CO 0:42:56 0:41:32 0:13:24 
 412  199     9 M65-69  818 Ken Isenberg             65  M  Guffey           CO 0:42:58 0:41:34 0:13:25 
 413  214    30 F45-49  592 Angie Seay               48  F  Colorado Springs CO 0:42:23 0:41:34 0:13:25 
 414  200    12 M20-24  965 Tyler Moyes              20  M  Colorado Springs CO 0:42:59 0:41:40 0:13:26 
 415  215    28 F30-34 3983 Ashleigh Mann            33  F                      0:41:43 0:41:43 0:13:27 
 416  216    31 F45-49  364 Rebecca Berg             45  F  Colorado Springs CO 0:42:23 0:41:44 0:13:28 
 417  201    14 M01-14  636 Oliver Muhl              13  M  Colorado Springs CO 0:42:24 0:41:44 0:13:28 
 418  217    21 F01-14  444 Kaelyn Mueller            8  F  Colorado Springs CO 0:42:23 0:41:46 0:13:28 
 419  218    14 F55-59  534 Micki Vogt               56  F  Colorado Springs CO 0:42:19 0:41:47 0:13:29 
 420  219    29 F30-34  443 Jenna Street             32  F  Colorado Springs CO 0:42:25 0:41:48 0:13:29 

OPlc GPlc AGPlc AGrp   Bib  Name                    Age Sex City             St Gun     Chip    Pace    
 421  220    30 F30-34  182 Amber Egbert             32  F  Byers            CO 0:42:51 0:41:53 0:13:31 
 422  221    23 F35-39  822 Cassaundra Hein          37  F  Colorado Springs CO 0:42:31 0:41:56 0:13:32 
 423  222    24 F35-39  325 Marla Clayton            38  F  Colorado Springs CO 0:42:11 0:41:59 0:13:33 
 424  202    15 M01-14  858 Parker Murdock           12  M  Colorado Springs CO 0:43:13 0:42:01 0:13:33 
 425  223    25 F35-39  857 Lindsay Murdock          39  F  Colorado Springs CO 0:43:14 0:42:03 0:13:34 
 426  203    20 M55-59  665 Lee Burton               56  M  Divide           CO 0:43:19 0:42:04 0:13:34 
 427  224    32 F45-49 3597 Amy Wasson               49  F                      0:43:38 0:42:12 0:13:37 
 428  204    21 M55-59   55 Carl Lyman               59  M  Colorado Springs CO 0:42:43 0:42:31 0:13:43 
 429  225    40 F40-44  964 Jenni Fotheringham       40  F  Colorado Springs CO 0:43:50 0:42:32 0:13:43 
 430  226     6 F60-64  687 Carol Runnells           64  F  Colorado Springs CO 0:42:56 0:42:35 0:13:44 
 431  205    14 M60-64  541 Reuben Archuleta         62  M  Colorado Springs CO 0:42:49 0:42:37 0:13:45 
 432  227    15 F55-59  506 Deena Hiltbrand          56  F  Colorado Springs CO 0:43:47 0:42:40 0:13:46 
 433  206    16 M01-14  846 Brad Milewski            14  M  Colorado Springs CO 0:43:50 0:42:40 0:13:46 
 434  207    31 M50-54 3950 Brad Curtis              54  M  Colorado Springs CO 0:43:18 0:42:53 0:13:50 
 435  228    33 F45-49  609 Yolanda Garcia           48  F  Colorado Springs CO 0:44:10 0:42:56 0:13:51 
 436  229    41 F40-44  637 Amy Ward                 44  F  Colorado Springs CO 0:43:23 0:42:58 0:13:52 
 437  230    22 F50-54  183 Marianne Delaney         53  F  Colorado Springs CO 0:43:19 0:43:00 0:13:52 
 438  208    15 M60-64  718 Dennis Howard            63  M  Colorado Springs CO 0:43:34 0:43:01 0:13:53 
 439  231    23 F50-54  676 Julie Krejci             52  F  Colorado Springs CO 0:43:30 0:43:02 0:13:53 
 440  209    22 M55-59  119 Fred Fischlein           59  M  Colorado Springs CO 0:44:18 0:43:03 0:13:53 

OPlc GPlc AGPlc AGrp   Bib  Name                    Age Sex City             St Gun     Chip    Pace    
 441  232    24 F50-54  118 Deanne Fischlein         51  F  Colorado Springs CO 0:44:17 0:43:03 0:13:53 
 442  233    14 F20-24  681 Olivia Higgins           23  F  Colorado Springs CO 0:43:27 0:43:08 0:13:55 
 443  234    22 F01-14  866 Hayden Thompson           9  F  Colorado Springs CO 0:43:53 0:43:11 0:13:56 
 444  235    25 F50-54  729 Kath Hays                53  F  Colorado Springs CO 0:43:57 0:43:14 0:13:57 
 445  236    26 F50-54  679 Mary Sanchez             52  F  Colorado Springs CO 0:43:34 0:43:16 0:13:57 
 446  237    15 F20-24  680 Taylor Mahoney           23  F  Colorado Springs CO 0:43:34 0:43:16 0:13:57 
 447  238    42 F40-44  323 Alisa Morse              42  F  Colorado Springs CO 0:44:24 0:43:17 0:13:58 
 448  239     1 F70-74  170 Beverly Weaver           70  F  Colorado Springs CO 0:44:32 0:43:21 0:13:59 
 449  240    43 F40-44  865 Michele Thompson         43  F  Colorado Springs CO 0:44:15 0:43:35 0:14:04 
 450  210    17 M01-14  967 Maxwell Harcrow           9  M  Larkspur         CO 0:44:45 0:43:35 0:14:04 
 451  241    34 F45-49  966 Gina Harcrow             45  F  Larkspur         CO 0:44:45 0:43:35 0:14:04 
 452  242    31 F30-34  522 Rebekah Graner           30  F  Colorado Springs CO 0:44:23 0:43:40 0:14:05 
 453  211    32 M50-54  356 Leniel Garner            54  M  Colorado Springs CO 0:44:13 0:43:45 0:14:07 
 454  243    32 F30-34  430 Lisa Nicoll              32  F  Strasburg        CO 0:43:55 0:43:55 0:14:10 
 455  244    26 F35-39  791 Nichol Shaffer           35  F  Colorado Springs CO 0:44:53 0:43:55 0:14:10 
 456  245    33 F30-34  587 Michelle Mathis          33  F  Colorado Springs CO 0:44:52 0:43:55 0:14:10 
 457  246    27 F50-54  163 Kimberly Seipp           54  F  Strasburg        CO 0:43:56 0:43:56 0:14:10 
 458  247    27 F35-39   97 Johnne Maxfield          35  F  Oakley           KS 0:44:34 0:43:56 0:14:10 
 459  248    23 F01-14 3452 Kylee Maxfield           10  F                      0:44:35 0:43:57 0:14:11 
 460  249     7 F60-64  238 Jackie Smith-Hill        60  F  Colorado Springs CO 0:44:25 0:43:59 0:14:11 

OPlc GPlc AGPlc AGrp   Bib  Name                    Age Sex City             St Gun     Chip    Pace    
 461  250    34 F30-34  570 Amber Moore              34  F  Pueblo           CO 0:45:26 0:44:01 0:14:12 
 462  251    28 F35-39  583 Melissa Rolli            36  F  Colorado Springs CO 0:45:13 0:44:02 0:14:12 
 463  252    35 F45-49  761 Joline Harrison          49  F  Monument         CO 0:45:14 0:44:03 0:14:13 
 464  253    29 F35-39  212 Marci Braithwaite        37  F  Peyton           CO 0:45:17 0:44:06 0:14:14 
 465  212    13 M25-29  480 Garfield Gerholdt        27  M  Colorado Springs CO 0:44:40 0:44:13 0:14:16 
 466  254    16 F55-59  733 Shirley Pease            55  F  Colorado Springs CO 0:44:59 0:44:14 0:14:16 
 467  213    18 M01-14  162 James Callender          13  M  Colorado Springs CO 0:44:15 0:44:15 0:14:16 
 468  255    17 F55-59  744 Sherry Dunham            55  F  Colorado Springs CO 0:44:59 0:44:16 0:14:17 
 469  256    18 F55-59  259 Lisa Thomas              55  F  Colorado Springs CO 0:44:21 0:44:19 0:14:18 
 470  214    33 M50-54  287 Kraig Keller             50  M  Colorado Springs CO 0:45:20 0:44:32 0:14:22 
 471  215    19 M35-39  929 Tim Watson               37  M  Colorado Springs CO 0:45:30 0:44:48 0:14:27 
 472  216    19 M01-14  931 Luke Watson               7  M  Colorado Springs CO 0:45:30 0:44:49 0:14:27 
 473  217    16 M60-64  774 Randall Eaton            64  M  Colorado Springs CO 0:46:12 0:45:16 0:14:36 
 474  257    15 F25-29  578 Jackie Miller            27  F  Colorado Springs CO 0:45:35 0:45:17 0:14:36 
 475  258    16 F25-29  577 Jennifer Stroud          27  F  Colorado Springs CO 0:45:35 0:45:17 0:14:36 
 476  218    20 M40-44  324 Chris Morse              43  M  Colorado Springs CO 0:46:26 0:45:19 0:14:37 
 477  259    24 F01-14  787 Julia Eller              10  F  Colorado Springs CO 0:46:36 0:45:19 0:14:37 
 478  219    21 M40-44  785 John Eller               44  M  Colorado Springs CO 0:46:37 0:45:20 0:14:37 
 479  260    25 F01-14  930 Lauren Watson            10  F  Colorado Springs CO 0:45:34 0:45:34 0:14:42 
 480  261    36 F45-49  901 Elizabeth Turner         49  F  Monument         CO 0:45:40 0:45:34 0:14:42 

OPlc GPlc AGPlc AGrp   Bib  Name                    Age Sex City             St Gun     Chip    Pace    
 481  262    28 F50-54  329 Becki Tooley             51  F  Monument         CO 0:45:43 0:45:36 0:14:43 
 482  263    35 F30-34  939 Erica Pardue             30  F  Colorado Springs CO 0:47:06 0:45:43 0:14:45 
 483  264    29 F50-54  479 Angie Gerholdt           50  F  Colorado Springs CO 0:46:21 0:45:55 0:14:49 
 484  220    23 M55-59  623 Harry Kason              56  M  Monument         CO 0:46:17 0:45:55 0:14:49 
 485  265    19 F55-59  625 Elva Kason               56  F  Colorado Springs CO 0:46:18 0:45:56 0:14:49 
 486  266    30 F50-54  853 Laurie West              54  F  Monument         CO 0:47:02 0:46:10 0:14:54 
 487  221    17 M60-64  739 Kevan Worley             60  M  Colorado Springs CO 0:47:21 0:46:16 0:14:55 
 488  267     8 F60-64  314 Karen Zawacki            60  F  Colorado Springs CO 0:46:50 0:46:26 0:14:59 
 489  268    20 F55-59  993 Andrea Rynne             56  F  Colorado Springs CO 0:46:43 0:46:43 0:15:04 
 490  269    37 F45-49  484 Kerstin Von Hoene        46  F  Colorado Springs CO 0:47:48 0:46:56 0:15:08 
 491  270    38 F45-49  908 Adita Karges             48  F  Colorado Springs CO 0:47:14 0:47:03 0:15:11 
 492  271    36 F30-34  488 Rabecca Ranaldi          32  F  Colorado Springs CO 0:47:46 0:47:06 0:15:12 
 493  272    39 F45-49  884 Lisa Weeres              49  F  Colorado Springs CO 0:47:37 0:47:26 0:15:18 
 494  273    30 F35-39  426 Rae Hovanetz             35  F  Colorado Springs CO 0:49:08 0:47:46 0:15:25 
 495  274    16 F20-24  549 Caitlin Duncan           20  F  Colorado Springs CO 0:48:36 0:47:47 0:15:25 
 496  275    40 F45-49 3999 Jennifer Dreschen        46  F  Woodbridge       VA 0:47:48 0:47:48 0:15:25 
 497  276    31 F35-39  531 Shanna Smith             39  F  Colorado Springs CO 0:48:25 0:47:51 0:15:26 
 498  277    32 F35-39   43 Corinna Tepley           37  F  Colorado Springs CO 0:48:17 0:47:58 0:15:28 
 499  278    41 F45-49  551 Kelly Duncan             48  F  Colorado Springs CO 0:48:48 0:47:59 0:15:29 
 500  279    37 F30-34  379 Laura Birkholz           32  F  Colorado Springs CO 0:49:23 0:48:01 0:15:29 

OPlc GPlc AGPlc AGrp   Bib  Name                    Age Sex City             St Gun     Chip    Pace    
 501  280    17 F20-24  970 Megan Clark              24  F  Monument         CO 0:49:23 0:48:02 0:15:30 
 502  222    20 M35-39  862 Alex Clemons             36  M  Colorado Springs CO 0:49:23 0:48:06 0:15:31 
 503  281    38 F30-34  861 Alex Laput               30  F  Colorado Springs CO 0:49:25 0:48:08 0:15:32 
 504  282    33 F35-39  925 Teresa Brown             39  F  Monument         CO 0:48:29 0:48:13 0:15:33 
 505  223     5 M70-74  184 Dick Standaert           71  M  Colorado Springs CO 0:49:06 0:48:15 0:15:34 
 506  283     9 F15-19  821 Victoria Goodman         19  F  Peyton           CO 0:48:57 0:48:17 0:15:35 
 507  284    21 F55-59   99 Cynthia Timken           56  F  Oakley           KS 0:48:56 0:48:18 0:15:35 
 508  224    34 M50-54  926 Dan Reynolds             54  M  Monument         CO 0:48:36 0:48:20 0:15:35 
 509  285    18 F20-24  180 Hannah Overton           21  F  Monument         CO 0:49:43 0:48:27 0:15:38 
 510  225    35 M50-54  179 Myron Overton            53  M  Monument         CO 0:49:45 0:48:28 0:15:38 
 511  286     2 F70-74  185 Lorrie Werner            70  F  Colorado Springs CO 0:49:03 0:48:30 0:15:39 
 512  287    31 F50-54   95 Jamie Heskett            50  F  Oakley           KS 0:48:46 0:48:46 0:15:44 
 513  226     4 M75-79  520 Stan Upchurch            78  M  Colorado Springs CO 0:49:45 0:48:56 0:15:47 
 514  288    42 F45-49  811 Kandy Drake              48  F  Colorado Springs CO 0:49:45 0:49:10 0:15:52 
 515  289     9 F60-64  403 Deborah Jenkins          62  F  Colorado Springs CO 0:49:43 0:49:21 0:15:55 
 516  290    44 F40-44  920 Rosemary Korsos          44  F  Colorado Springs CO 0:50:27 0:49:32 0:15:59 
 517  227    20 M01-14  848 Travis Milewski          12  M  Colorado Springs CO 0:51:00 0:49:49 0:16:04 
 518  228     6 M70-74  516 Mike Boyle               70  M  Castle Rock      CO 0:50:09 0:49:50 0:16:05 
 519  291    22 F55-59 2652 Mary Rowan               57  F  Falcon           CO 0:51:19 0:50:02 0:16:08 
 520  229    10 M65-69 3595 Borl Stewart             67  M                      0:50:15 0:50:15 0:16:13 

OPlc GPlc AGPlc AGrp   Bib  Name                    Age Sex City             St Gun     Chip    Pace    
 521  230    11 M65-69 2805 Bill Rowan               65  M  Falcon           CO 0:51:48 0:50:31 0:16:18 
 522  292    10 F60-64  722 Janine McKeown           62  F  Colorado Springs CO 0:50:52 0:50:39 0:16:20 
 523  293    17 F25-29 4000 Hillary Brosseau         28  F                      0:52:25 0:50:57 0:16:26 
 524  294    11 F60-64  547 Connie Evers             62  F  Colorado Springs CO 0:51:22 0:51:02 0:16:28 
 525  295    45 F40-44  353 Heather Becker           42  F  Colorado Springs CO 0:51:37 0:51:04 0:16:28 
 526  296    23 F55-59  537 Janet Clifton            58  F  Colorado Springs CO 0:51:24 0:51:05 0:16:29 
 527  297    46 F40-44  354 Jennifer Stilley         42  F  Colorado Springs CO 0:51:39 0:51:05 0:16:29 
 528  298    32 F50-54  820 Jacqueline Goodman       53  F  Peyton           CO 0:51:48 0:51:08 0:16:30 
 529  299     3 F65-69  142 Jo Lund                  66  F  Peyton           CO 0:52:10 0:51:14 0:16:32 
 530  300    34 F35-39  438 Alecia DeLorme           36  F  Colorado Springs CO 0:52:34 0:51:15 0:16:32 
 531  231    12 M65-69  141 Roger Lund               66  M  Peyton           CO 0:52:13 0:51:17 0:16:33 
 532  232    13 M65-69  521 Tom Collins              65  M  Colorado Springs CO 0:52:16 0:51:17 0:16:33 
 533  301    39 F30-34  536 Kristen Daugherty Smith  34  F  Colorado Springs CO 0:53:08 0:51:50 0:16:43 
 534  302    12 F60-64  678 Barbara Daugherty        62  F  Colorado Springs CO 0:53:11 0:51:53 0:16:44 
 535  303    26 F01-14  826 Abigail Seidenberg       12  F  Colorado Springs CO 0:52:55 0:51:53 0:16:44 
 536  304    19 F20-24   64 Breanne Adair            22  F  Colorado Springs CO 0:53:13 0:51:55 0:16:45 
 537  233     5 M75-79   76 Charles Snygg            77  M  Colorado Springs CO 0:53:14 0:52:07 0:16:49 
 538  305    18 F25-29  401 Natalie Held             29  F  Denver           CO 0:52:32 0:52:32 0:16:57 
 539  306     1 F80-98  664 Julie Foster             80  F  Colorado Springs CO 0:52:49 0:52:35 0:16:58 
 540  234    21 M35-39  960 Mike Larsen              39  M  Colorado Springs CO 0:52:38 0:52:38 0:16:59 

OPlc GPlc AGPlc AGrp   Bib  Name                    Age Sex City             St Gun     Chip    Pace    
 541  307    10 F15-19  936 Taylor Lembergs-Moran    19  F  Colorado Springs CO 0:53:51 0:52:47 0:17:02 
 542  308    20 F20-24  935 Selena Moran             21  F  Colorado Springs CO 0:53:54 0:52:50 0:17:03 
 543  235    24 M55-59  165 Kevin Barszcz            55  M  Monument         CO 0:54:31 0:53:04 0:17:07 
 544  309    33 F50-54  166 Natalie Barszcz          51  F  Monument         CO 0:54:31 0:53:04 0:17:07 
 545  310     3 F70-74   35 Andrea Hatch             73  F  Colorado Springs CO 0:54:15 0:53:06 0:17:08 
 546  311    40 F30-34  267 Gracia Ruiz              33  F  Colorado Springs CO 0:53:46 0:53:07 0:17:08 
 547  312    43 F45-49  692 Julie Ronshaugen         48  F  Colorado Springs CO 0:53:50 0:53:12 0:17:10 
 548  313    11 F15-19  483 Cameryn Smit             15  F  Colorado Springs CO 0:53:35 0:53:13 0:17:10 
 549  314    44 F45-49  482 Renee Smit               48  F  Colorado Springs CO 0:53:39 0:53:18 0:17:12 
 550  236    23 M45-49  481 Robert Smit              45  M  Colorado Springs CO 0:53:41 0:53:20 0:17:12 
 551  315    13 F60-64  523 Teresa Graner            62  F  Colorado Springs CO 0:54:52 0:54:06 0:17:27 
 552  237    22 M35-39  571 Chris Moore              37  M  Pueblo           CO 0:55:40 0:54:15 0:17:30 
 553  238    21 M01-14  573 Gaige Moore              11  M  Pueblo           CO 0:55:41 0:54:17 0:17:31 
 554  316    24 F55-59  564 Michelle McGill          59  F  Colorado Springs CO 0:54:38 0:54:35 0:17:36 
 555  317    35 F35-39  320 Patricia Pannell         39  F  Colorado Springs CO 0:55:43 0:54:45 0:17:40 
 556  318    34 F50-54   79 Jennifer Finley          50  F  Colorado Springs CO 0:56:02 0:54:48 0:17:41 
 557  319     2 F80-98    1 Audrey MacDonald         87  F  Colorado Springs CO 0:55:49 0:54:49 0:17:41 
 558  239    14 M65-69  563 Ig McGill                67  M  Colorado Springs CO 0:54:53 0:54:50 0:17:41 
 559  320    45 F45-49  194 Sherry Bailey            49  F  Colorado Springs CO 0:56:07 0:54:54 0:17:43 
 560  321    47 F40-44 3967 Vanessa Shawver          44  F                   CO 0:55:54 0:54:55 0:17:43 

OPlc GPlc AGPlc AGrp   Bib  Name                    Age Sex City             St Gun     Chip    Pace    
 561  322    35 F50-54  294 Patti Carazo             52  F  USAFA            CO 0:55:32 0:54:58 0:17:44 
 562  323    36 F35-39  845 Prudence White           37  F  Colorado Springs CO 0:56:09 0:55:01 0:17:45 
 563  324    25 F55-59  292 Helen Duckett            57  F  Peyton           CO 0:55:37 0:55:03 0:17:45 
 564  325    37 F35-39  695 Angela Van House         35  F  Colorado Springs CO 0:56:14 0:55:04 0:17:46 
 565  326     4 F70-74 3977 Joyce Wohlfert           73  F                      0:55:56 0:55:31 0:17:55 
 566  327    48 F40-44  128 Karen Masias             40  F  Colorado Springs CO 0:57:26 0:56:21 0:18:11 
 567  328    21 F20-24  144 Chelsey Archer           24  F  Peyton           CO 0:56:25 0:56:25 0:18:12 
 568  329     4 F65-69  708 Mary Scott               66  F  Colorado Springs CO 0:58:11 0:57:13 0:18:27 
 569  330    26 F55-59  760 Rhonda Freeman           56  F  Colorado Springs CO 0:58:34 0:58:18 0:18:48 
 570  240    25 M55-59  460 Raymond Crawford         59  M  Colorado Springs CO 0:58:48 0:58:31 0:18:53 
 571  331    19 F25-29  954 Natalie Hicks            27  F  Colorado Springs CO 0:59:44 0:58:31 0:18:53 
 572  241    22 M01-14  827 Braeden Seidenberg        8  M  Colorado Springs CO 0:59:37 0:58:34 0:18:54 
 573  332    36 F50-54  766 Suzanne Riefstahl        51  F  Colorado Springs CO 0:59:50 0:58:37 0:18:55 
 574  242    22 M40-44  825 Todd Seidenberg          42  M  Colorado Springs CO 0:59:39 0:58:38 0:18:55 
 575  243    14 M25-29  953 Benjamin Hicks           27  M  Colorado Springs CO 0:59:51 0:58:38 0:18:55 
 576  244    15 M65-69  973 Patrick Morgan           69  M  Colorado Springs CO 0:59:02 0:58:44 0:18:57 
 577  333    14 F60-64  298 Valerie Bowen            62  F  Colorado Springs CO 0:59:11 0:58:46 0:18:57 
 578  334     5 F65-69  972 Marilyn Morgan           68  F  Colorado Springs CO 0:59:06 0:58:46 0:18:57 
 579  335    27 F55-59  223 Careyn Mason             57  F  Colorado Springs CO 0:59:10 0:58:53 0:19:00 
 580  336     6 F65-69  476 Jenny Stutts             65  F  Colorado Springs CO 1:00:16 0:59:10 0:19:05 

OPlc GPlc AGPlc AGrp   Bib  Name                    Age Sex City             St Gun     Chip    Pace    
 581  337    46 F45-49  469 Ashley Wilson            45  F  Peyton           CO 1:00:16 0:59:11 0:19:05 
 582  245    18 M60-64  463 Lou Christensen          60  M  Colorado Springs CO 1:00:51 0:59:27 0:19:11 
 583  338    28 F55-59 3449 Cynthia Christensen      58  F  Colorado Springs CO 1:00:55 0:59:33 0:19:13 
 584  339    15 F60-64  493 Laurel Mellott           61  F  Colorado Springs CO 1:00:29 0:59:50 0:19:18 
 585  340    20 F25-29  462 Chelsea Fearon           25  F  Colorado Springs CO 1:00:38 1:00:01 0:19:22 
 586  341    41 F30-34 3457 Amber Miller             32  F  Colorado Springs CO 1:01:35 1:00:21 0:19:28 
 587  246     7 M70-74  539 Myron Gelsinger          70  M  Colorado Springs CO 1:01:34 1:00:39 0:19:34 
 588  342    47 F45-49  758 Lisa Smith               48  F  Colorado Springs CO 1:02:37 1:01:43 0:19:55 
 589  343    38 F35-39  594 Molly Parsons            37  F  Colorado Springs CO 1:02:37 1:01:44 0:19:55 
 590  344    49 F40-44  867 Jessica Bell             40  F  Colorado Springs CO 1:02:44 1:01:51 0:19:57 
 591  247    23 M01-14  101 Jericho Gally            13  M  Colorado Springs CO 1:02:19 1:02:06 0:20:02 
 592  248     8 M70-74  801 Scott Braeger            71  M  Colorado Springs CO 1:03:32 1:02:38 0:20:12 
 593  345    16 F60-64  874 Ellen Bell               64  F  Colorado Springs CO 1:03:35 1:02:42 0:20:14 
 594  346     7 F65-69  802 Colleen Braeger          68  F  Colorado Springs CO 1:03:35 1:02:42 0:20:14 
 595  249    16 M65-69 3997 Biff Morehead            65  M  Colorado Springs CO 1:08:15 1:06:52 0:21:34 
 596  250    17 M30-34  913 Todd Baldwin             33  M  Colorado Springs CO 1:08:17 1:06:55 0:21:35 
 597  251    19 M60-64  241 Kevin Schumacher         63  M  Castle Rock      CO 1:08:31 1:07:26 0:21:45 
 598  347     8 F65-69  242 Carol Schumacher         65  F  Castle Rock      CO 1:08:32 1:07:29 0:21:46 
 599  252    23 M40-44  338 Shane Hansen             42  M  Colorado Springs CO 1:18:40 1:17:34 0:25:01 
 600  253    24 M01-14  371 Benjamin Mesnikoff        7  M  Colorado Springs CO 1:18:44 1:17:38 0:25:03 

OPlc GPlc AGPlc AGrp   Bib  Name                    Age Sex City             St Gun     Chip    Pace    
 601  348    48 F45-49  369 Julia Mesnikoff          46  F  Colorado Springs CO 1:18:47 1:17:42 0:25:04 
 602  254    24 M45-49  370 Nathan Mesnikoff         47  M  Colorado Springs CO 1:18:51 1:17:45 0:25:05 
 603  255    36 M50-54  831 Richard Emond            54  M  Canon City       CO 1:27:30 1:27:30 0:28:14